sensor_id;sensor_type;location;lat;lon;timestamp;P1;durP1;ratioP1;P2;durP2;ratioP2
24102;SDS011;12278;53.058;9.028;2023-05-08T00:01:39;6.43;;;5.47;;
24102;SDS011;12278;53.058;9.028;2023-05-08T00:05:40;6.82;;;5.63;;
24102;SDS011;12278;53.058;9.028;2023-05-08T00:09:41;5.95;;;5.35;;
24102;SDS011;12278;53.058;9.028;2023-05-08T00:13:41;8.27;;;7.00;;
24102;SDS011;12278;53.058;9.028;2023-05-08T00:17:42;7.22;;;6.25;;
24102;SDS011;12278;53.058;9.028;2023-05-08T00:21:42;7.95;;;6.32;;
24102;SDS011;12278;53.058;9.028;2023-05-08T00:25:43;9.20;;;6.53;;
24102;SDS011;12278;53.058;9.028;2023-05-08T00:29:43;8.88;;;6.35;;
24102;SDS011;12278;53.058;9.028;2023-05-08T00:33:44;7.57;;;5.60;;
24102;SDS011;12278;53.058;9.028;2023-05-08T00:37:47;6.53;;;5.93;;
24102;SDS011;12278;53.058;9.028;2023-05-08T00:41:48;6.15;;;5.55;;
24102;SDS011;12278;53.058;9.028;2023-05-08T00:45:48;7.03;;;6.28;;
24102;SDS011;12278;53.058;9.028;2023-05-08T00:49:49;6.32;;;5.65;;
24102;SDS011;12278;53.058;9.028;2023-05-08T00:53:50;7.20;;;6.50;;
24102;SDS011;12278;53.058;9.028;2023-05-08T00:57:50;10.23;;;6.43;;
24102;SDS011;12278;53.058;9.028;2023-05-08T01:01:59;7.05;;;6.35;;
24102;SDS011;12278;53.058;9.028;2023-05-08T01:06:01;7.93;;;5.60;;
24102;SDS011;12278;53.058;9.028;2023-05-08T01:10:02;7.63;;;6.22;;
24102;SDS011;12278;53.058;9.028;2023-05-08T01:14:20;6.97;;;6.28;;
24102;SDS011;12278;53.058;9.028;2023-05-08T01:18:34;9.52;;;6.93;;
24102;SDS011;12278;53.058;9.028;2023-05-08T01:27:24;9.77;;;6.63;;
24102;SDS011;12278;53.058;9.028;2023-05-08T01:32:16;9.27;;;6.80;;
24102;SDS011;12278;53.058;9.028;2023-05-08T01:45:10;11.30;;;7.97;;
24102;SDS011;12278;53.058;9.028;2023-05-08T01:53:44;10.38;;;7.75;;
24102;SDS011;12278;53.058;9.028;2023-05-08T01:57:50;6.97;;;6.38;;
24102;SDS011;12278;53.058;9.028;2023-05-08T02:01:54;7.90;;;6.85;;
24102;SDS011;12278;53.058;9.028;2023-05-08T02:05:58;7.22;;;6.53;;
24102;SDS011;12278;53.058;9.028;2023-05-08T02:10:01;7.93;;;7.22;;
24102;SDS011;12278;53.058;9.028;2023-05-08T02:14:03;6.70;;;6.10;;
24102;SDS011;12278;53.058;9.028;2023-05-08T02:18:06;7.53;;;6.72;;
24102;SDS011;12278;53.058;9.028;2023-05-08T02:22:08;7.70;;;6.80;;
24102;SDS011;12278;53.058;9.028;2023-05-08T02:26:09;9.13;;;7.38;;
24102;SDS011;12278;53.058;9.028;2023-05-08T02:30:13;10.02;;;7.20;;
24102;SDS011;12278;53.058;9.028;2023-05-08T02:34:15;13.13;;;9.02;;
24102;SDS011;12278;53.058;9.028;2023-05-08T02:38:18;9.57;;;8.05;;
24102;SDS011;12278;53.058;9.028;2023-05-08T02:42:20;9.27;;;8.27;;
24102;SDS011;12278;53.058;9.028;2023-05-08T02:59:33;8.02;;;7.32;;
24102;SDS011;12278;53.058;9.028;2023-05-08T03:03:42;8.10;;;7.30;;
24102;SDS011;12278;53.058;9.028;2023-05-08T03:07:46;7.82;;;7.13;;
24102;SDS011;12278;53.058;9.028;2023-05-08T03:11:55;7.80;;;7.00;;
24102;SDS011;12278;53.058;9.028;2023-05-08T03:16:03;8.02;;;6.75;;
24102;SDS011;12278;53.058;9.028;2023-05-08T03:20:05;8.75;;;7.85;;
24102;SDS011;12278;53.058;9.028;2023-05-08T03:24:13;9.10;;;7.13;;
24102;SDS011;12278;53.058;9.028;2023-05-08T03:28:16;7.85;;;7.05;;
24102;SDS011;12278;53.058;9.028;2023-05-08T03:32:18;7.95;;;7.15;;
24102;SDS011;12278;53.058;9.028;2023-05-08T03:36:21;7.93;;;7.05;;
24102;SDS011;12278;53.058;9.028;2023-05-08T03:40:23;8.32;;;7.55;;
24102;SDS011;12278;53.058;9.028;2023-05-08T03:44:27;8.27;;;7.47;;
24102;SDS011;12278;53.058;9.028;2023-05-08T03:48:30;7.87;;;7.07;;
24102;SDS011;12278;53.058;9.028;2023-05-08T03:52:32;7.45;;;6.63;;
24102;SDS011;12278;53.058;9.028;2023-05-08T03:56:33;9.40;;;6.60;;
24102;SDS011;12278;53.058;9.028;2023-05-08T04:00:42;10.23;;;7.25;;
24102;SDS011;12278;53.058;9.028;2023-05-08T04:05:53;8.27;;;6.57;;
24102;SDS011;12278;53.058;9.028;2023-05-08T04:14:02;8.50;;;7.57;;
24102;SDS011;12278;53.058;9.028;2023-05-08T04:18:09;10.00;;;7.93;;
24102;SDS011;12278;53.058;9.028;2023-05-08T04:22:15;12.77;;;8.57;;
24102;SDS011;12278;53.058;9.028;2023-05-08T04:26:19;12.35;;;9.40;;
24102;SDS011;12278;53.058;9.028;2023-05-08T04:30:21;15.95;;;9.63;;
24102;SDS011;12278;53.058;9.028;2023-05-08T04:34:22;14.10;;;9.00;;
24102;SDS011;12278;53.058;9.028;2023-05-08T04:38:22;13.27;;;9.18;;
24102;SDS011;12278;53.058;9.028;2023-05-08T04:42:23;10.65;;;8.75;;
24102;SDS011;12278;53.058;9.028;2023-05-08T04:46:28;9.63;;;7.80;;
24102;SDS011;12278;53.058;9.028;2023-05-08T04:50:28;11.60;;;7.50;;
24102;SDS011;12278;53.058;9.028;2023-05-08T04:54:29;9.17;;;7.13;;
24102;SDS011;12278;53.058;9.028;2023-05-08T04:58:30;10.60;;;7.22;;
24102;SDS011;12278;53.058;9.028;2023-05-08T05:02:30;7.57;;;6.88;;
24102;SDS011;12278;53.058;9.028;2023-05-08T05:06:31;7.13;;;6.43;;
24102;SDS011;12278;53.058;9.028;2023-05-08T05:10:32;6.82;;;6.18;;
24102;SDS011;12278;53.058;9.028;2023-05-08T05:14:33;8.80;;;7.30;;
24102;SDS011;12278;53.058;9.028;2023-05-08T05:18:33;7.72;;;6.88;;
24102;SDS011;12278;53.058;9.028;2023-05-08T05:22:34;9.13;;;7.40;;
24102;SDS011;12278;53.058;9.028;2023-05-08T05:26:35;8.55;;;7.63;;
24102;SDS011;12278;53.058;9.028;2023-05-08T05:30:45;8.63;;;6.63;;
24102;SDS011;12278;53.058;9.028;2023-05-08T05:34:47;8.38;;;6.53;;
24102;SDS011;12278;53.058;9.028;2023-05-08T05:38:57;7.18;;;6.47;;
24102;SDS011;12278;53.058;9.028;2023-05-08T05:42:58;6.68;;;6.03;;
24102;SDS011;12278;53.058;9.028;2023-05-08T05:47:00;7.10;;;6.40;;
24102;SDS011;12278;53.058;9.028;2023-05-08T05:51:01;8.98;;;6.80;;
24102;SDS011;12278;53.058;9.028;2023-05-08T05:55:02;6.72;;;6.13;;
24102;SDS011;12278;53.058;9.028;2023-05-08T05:59:03;7.20;;;6.20;;
24102;SDS011;12278;53.058;9.028;2023-05-08T06:03:04;7.25;;;6.55;;
24102;SDS011;12278;53.058;9.028;2023-05-08T06:07:04;7.25;;;6.28;;
24102;SDS011;12278;53.058;9.028;2023-05-08T06:11:05;7.38;;;6.32;;
24102;SDS011;12278;53.058;9.028;2023-05-08T06:15:06;7.63;;;6.95;;
24102;SDS011;12278;53.058;9.028;2023-05-08T06:19:08;7.18;;;6.18;;
24102;SDS011;12278;53.058;9.028;2023-05-08T06:23:08;7.32;;;6.57;;
24102;SDS011;12278;53.058;9.028;2023-05-08T06:27:09;9.00;;;6.65;;
24102;SDS011;12278;53.058;9.028;2023-05-08T06:31:10;9.82;;;6.38;;
24102;SDS011;12278;53.058;9.028;2023-05-08T06:39:18;10.30;;;7.20;;
24102;SDS011;12278;53.058;9.028;2023-05-08T06:43:20;7.13;;;6.03;;
24102;SDS011;12278;53.058;9.028;2023-05-08T06:47:20;7.30;;;6.70;;
24102;SDS011;12278;53.058;9.028;2023-05-08T06:51:21;11.25;;;7.55;;
24102;SDS011;12278;53.058;9.028;2023-05-08T06:55:22;8.27;;;7.03;;
24102;SDS011;12278;53.058;9.028;2023-05-08T06:59:22;8.05;;;6.15;;
24102;SDS011;12278;53.058;9.028;2023-05-08T07:03:23;9.13;;;6.93;;
24102;SDS011;12278;53.058;9.028;2023-05-08T07:07:24;7.65;;;6.85;;
24102;SDS011;12278;53.058;9.028;2023-05-08T07:11:24;5.72;;;5.22;;
24102;SDS011;12278;53.058;9.028;2023-05-08T07:15:25;6.50;;;5.82;;
24102;SDS011;12278;53.058;9.028;2023-05-08T07:23:29;6.60;;;6.00;;
24102;SDS011;12278;53.058;9.028;2023-05-08T07:27:30;6.43;;;5.82;;
24102;SDS011;12278;53.058;9.028;2023-05-08T07:31:31;6.28;;;5.78;;
24102;SDS011;12278;53.058;9.028;2023-05-08T07:35:37;6.70;;;6.10;;
24102;SDS011;12278;53.058;9.028;2023-05-08T07:39:38;6.70;;;5.85;;
24102;SDS011;12278;53.058;9.028;2023-05-08T07:43:38;6.18;;;5.63;;
24102;SDS011;12278;53.058;9.028;2023-05-08T07:47:55;7.45;;;6.60;;
24102;SDS011;12278;53.058;9.028;2023-05-08T07:56:06;6.65;;;5.82;;
24102;SDS011;12278;53.058;9.028;2023-05-08T08:00:08;6.68;;;5.65;;
24102;SDS011;12278;53.058;9.028;2023-05-08T08:04:10;6.63;;;5.88;;
24102;SDS011;12278;53.058;9.028;2023-05-08T08:08:11;7.43;;;6.72;;
24102;SDS011;12278;53.058;9.028;2023-05-08T08:12:15;10.82;;;7.47;;
24102;SDS011;12278;53.058;9.028;2023-05-08T08:16:15;8.07;;;6.80;;
24102;SDS011;12278;53.058;9.028;2023-05-08T08:20:16;7.45;;;6.75;;
24102;SDS011;12278;53.058;9.028;2023-05-08T08:24:17;7.25;;;6.55;;
24102;SDS011;12278;53.058;9.028;2023-05-08T08:28:18;7.75;;;7.05;;
24102;SDS011;12278;53.058;9.028;2023-05-08T08:32:18;8.18;;;7.32;;
24102;SDS011;12278;53.058;9.028;2023-05-08T08:36:19;8.52;;;7.68;;
24102;SDS011;12278;53.058;9.028;2023-05-08T08:40:20;9.70;;;7.18;;
24102;SDS011;12278;53.058;9.028;2023-05-08T08:44:21;7.70;;;7.00;;
24102;SDS011;12278;53.058;9.028;2023-05-08T08:48:22;8.43;;;6.93;;
24102;SDS011;12278;53.058;9.028;2023-05-08T08:52:31;7.47;;;6.75;;
24102;SDS011;12278;53.058;9.028;2023-05-08T08:56:44;7.88;;;7.07;;
24102;SDS011;12278;53.058;9.028;2023-05-08T09:04:53;7.10;;;6.45;;
24102;SDS011;12278;53.058;9.028;2023-05-08T09:08:54;7.75;;;6.78;;
24102;SDS011;12278;53.058;9.028;2023-05-08T09:12:56;8.10;;;7.30;;
24102;SDS011;12278;53.058;9.028;2023-05-08T09:17:00;6.72;;;6.13;;
24102;SDS011;12278;53.058;9.028;2023-05-08T09:21:01;7.75;;;7.03;;
24102;SDS011;12278;53.058;9.028;2023-05-08T09:25:04;7.28;;;6.40;;
24102;SDS011;12278;53.058;9.028;2023-05-08T09:33:13;7.32;;;6.35;;
24102;SDS011;12278;53.058;9.028;2023-05-08T09:37:13;6.72;;;5.97;;
24102;SDS011;12278;53.058;9.028;2023-05-08T09:41:15;6.45;;;5.80;;
24102;SDS011;12278;53.058;9.028;2023-05-08T09:45:24;7.10;;;5.93;;
24102;SDS011;12278;53.058;9.028;2023-05-08T09:49:27;6.00;;;5.50;;
24102;SDS011;12278;53.058;9.028;2023-05-08T09:53:30;9.07;;;6.43;;
24102;SDS011;12278;53.058;9.028;2023-05-08T09:57:32;6.22;;;5.72;;
24102;SDS011;12278;53.058;9.028;2023-05-08T10:01:39;5.45;;;4.97;;
24102;SDS011;12278;53.058;9.028;2023-05-08T10:05:41;5.55;;;5.05;;
24102;SDS011;12278;53.058;9.028;2023-05-08T10:09:56;6.80;;;6.15;;
24102;SDS011;12278;53.058;9.028;2023-05-08T10:13:58;12.75;;;5.53;;
24102;SDS011;12278;53.058;9.028;2023-05-08T10:22:04;6.53;;;5.93;;
24102;SDS011;12278;53.058;9.028;2023-05-08T10:26:10;5.97;;;5.47;;
24102;SDS011;12278;53.058;9.028;2023-05-08T10:30:24;6.95;;;5.85;;
24102;SDS011;12278;53.058;9.028;2023-05-08T10:34:26;6.38;;;5.78;;
24102;SDS011;12278;53.058;9.028;2023-05-08T10:38:30;6.78;;;6.18;;
24102;SDS011;12278;53.058;9.028;2023-05-08T10:42:33;8.38;;;6.28;;
24102;SDS011;12278;53.058;9.028;2023-05-08T10:51:13;7.47;;;6.78;;
24102;SDS011;12278;53.058;9.028;2023-05-08T10:55:18;7.88;;;5.68;;
24102;SDS011;12278;53.058;9.028;2023-05-08T10:59:27;7.95;;;5.90;;
24102;SDS011;12278;53.058;9.028;2023-05-08T11:03:29;7.38;;;5.82;;
24102;SDS011;12278;53.058;9.028;2023-05-08T11:07:51;7.00;;;6.30;;
24102;SDS011;12278;53.058;9.028;2023-05-08T11:12:06;6.20;;;5.60;;
24102;SDS011;12278;53.058;9.028;2023-05-08T11:16:07;7.00;;;6.22;;
24102;SDS011;12278;53.058;9.028;2023-05-08T11:20:14;7.63;;;6.15;;
24102;SDS011;12278;53.058;9.028;2023-05-08T11:24:14;6.53;;;5.97;;
24102;SDS011;12278;53.058;9.028;2023-05-08T11:28:15;6.88;;;6.22;;
24102;SDS011;12278;53.058;9.028;2023-05-08T11:32:16;6.53;;;5.93;;
24102;SDS011;12278;53.058;9.028;2023-05-08T11:36:17;6.18;;;5.68;;
24102;SDS011;12278;53.058;9.028;2023-05-08T12:12:48;5.15;;;4.70;;
24102;SDS011;12278;53.058;9.028;2023-05-08T14:09:39;3.35;;;2.97;;
24102;SDS011;12278;53.058;9.028;2023-05-08T14:13:41;5.38;;;3.28;;
24102;SDS011;12278;53.058;9.028;2023-05-08T14:17:42;4.68;;;3.70;;
24102;SDS011;12278;53.058;9.028;2023-05-08T14:21:43;7.03;;;3.10;;
24102;SDS011;12278;53.058;9.028;2023-05-08T14:25:44;3.17;;;2.88;;
24102;SDS011;12278;53.058;9.028;2023-05-08T14:29:44;4.05;;;3.00;;
24102;SDS011;12278;53.058;9.028;2023-05-08T14:33:45;5.32;;;2.97;;
24102;SDS011;12278;53.058;9.028;2023-05-08T14:37:46;3.92;;;3.22;;
24102;SDS011;12278;53.058;9.028;2023-05-08T14:41:46;5.40;;;2.88;;
24102;SDS011;12278;53.058;9.028;2023-05-08T14:45:47;3.33;;;2.70;;
24102;SDS011;12278;53.058;9.028;2023-05-08T14:49:48;2.92;;;2.72;;
24102;SDS011;12278;53.058;9.028;2023-05-08T14:53:49;2.90;;;2.70;;
24102;SDS011;12278;53.058;9.028;2023-05-08T14:57:50;6.32;;;2.92;;
24102;SDS011;12278;53.058;9.028;2023-05-08T15:01:50;2.63;;;2.42;;
24102;SDS011;12278;53.058;9.028;2023-05-08T15:05:51;3.00;;;2.55;;
24102;SDS011;12278;53.058;9.028;2023-05-08T15:09:52;2.90;;;2.65;;
24102;SDS011;12278;53.058;9.028;2023-05-08T15:13:52;4.57;;;2.65;;
24102;SDS011;12278;53.058;9.028;2023-05-08T15:17:53;3.08;;;2.78;;
24102;SDS011;12278;53.058;9.028;2023-05-08T15:21:53;3.25;;;2.95;;
24102;SDS011;12278;53.058;9.028;2023-05-08T15:25:54;2.83;;;2.60;;
24102;SDS011;12278;53.058;9.028;2023-05-08T15:29:55;3.22;;;2.70;;
24102;SDS011;12278;53.058;9.028;2023-05-08T15:33:55;2.92;;;2.60;;
24102;SDS011;12278;53.058;9.028;2023-05-08T15:37:56;3.10;;;2.80;;
24102;SDS011;12278;53.058;9.028;2023-05-08T15:41:56;3.00;;;2.75;;
24102;SDS011;12278;53.058;9.028;2023-05-08T15:45:57;3.03;;;2.72;;
24102;SDS011;12278;53.058;9.028;2023-05-08T15:49:58;2.33;;;2.15;;
24102;SDS011;12278;53.058;9.028;2023-05-08T15:53:58;2.60;;;2.40;;
24102;SDS011;12278;53.058;9.028;2023-05-08T15:57:59;3.65;;;3.00;;
24102;SDS011;12278;53.058;9.028;2023-05-08T16:01:59;3.30;;;2.90;;
24102;SDS011;12278;53.058;9.028;2023-05-08T16:06:00;3.08;;;2.72;;
24102;SDS011;12278;53.058;9.028;2023-05-08T16:10:03;3.53;;;3.17;;
24102;SDS011;12278;53.058;9.028;2023-05-08T16:14:04;2.88;;;2.60;;
24102;SDS011;12278;53.058;9.028;2023-05-08T16:18:05;3.38;;;3.08;;
24102;SDS011;12278;53.058;9.028;2023-05-08T16:22:06;5.63;;;3.13;;
24102;SDS011;12278;53.058;9.028;2023-05-08T16:26:06;3.85;;;3.35;;
24102;SDS011;12278;53.058;9.028;2023-05-08T16:30:07;3.97;;;2.80;;
24102;SDS011;12278;53.058;9.028;2023-05-08T16:34:08;3.15;;;2.80;;
24102;SDS011;12278;53.058;9.028;2023-05-08T16:38:09;3.25;;;2.97;;
24102;SDS011;12278;53.058;9.028;2023-05-08T16:42:09;2.85;;;2.65;;
24102;SDS011;12278;53.058;9.028;2023-05-08T16:46:10;2.92;;;2.72;;
24102;SDS011;12278;53.058;9.028;2023-05-08T16:50:11;3.10;;;2.80;;
24102;SDS011;12278;53.058;9.028;2023-05-08T16:54:11;2.90;;;2.70;;
24102;SDS011;12278;53.058;9.028;2023-05-08T16:58:12;2.95;;;2.75;;
24102;SDS011;12278;53.058;9.028;2023-05-08T17:02:13;3.38;;;3.08;;
24102;SDS011;12278;53.058;9.028;2023-05-08T17:06:17;3.60;;;3.30;;
24102;SDS011;12278;53.058;9.028;2023-05-08T17:10:19;3.63;;;3.00;;
24102;SDS011;12278;53.058;9.028;2023-05-08T17:14:20;4.57;;;3.05;;
24102;SDS011;12278;53.058;9.028;2023-05-08T17:18:21;3.53;;;3.22;;
24102;SDS011;12278;53.058;9.028;2023-05-08T17:22:21;5.05;;;3.22;;
24102;SDS011;12278;53.058;9.028;2023-05-08T17:26:23;4.05;;;3.08;;
24102;SDS011;12278;53.058;9.028;2023-05-08T17:30:24;5.47;;;3.30;;
24102;SDS011;12278;53.058;9.028;2023-05-08T17:34:25;4.38;;;2.90;;
24102;SDS011;12278;53.058;9.028;2023-05-08T17:38:25;3.05;;;2.85;;
24102;SDS011;12278;53.058;9.028;2023-05-08T17:42:26;3.15;;;2.85;;
24102;SDS011;12278;53.058;9.028;2023-05-08T17:46:27;4.07;;;3.00;;
24102;SDS011;12278;53.058;9.028;2023-05-08T17:50:27;3.20;;;2.80;;
24102;SDS011;12278;53.058;9.028;2023-05-08T17:54:28;5.38;;;3.67;;
24102;SDS011;12278;53.058;9.028;2023-05-08T17:58:31;3.10;;;2.78;;
24102;SDS011;12278;53.058;9.028;2023-05-08T18:02:33;3.38;;;3.05;;
24102;SDS011;12278;53.058;9.028;2023-05-08T18:06:36;3.88;;;3.28;;
24102;SDS011;12278;53.058;9.028;2023-05-08T18:10:37;5.38;;;3.15;;
24102;SDS011;12278;53.058;9.028;2023-05-08T18:14:38;4.88;;;3.15;;
24102;SDS011;12278;53.058;9.028;2023-05-08T18:18:39;6.47;;;2.70;;
24102;SDS011;12278;53.058;9.028;2023-05-08T18:22:39;3.13;;;2.85;;
24102;SDS011;12278;53.058;9.028;2023-05-08T18:26:40;2.67;;;2.45;;
24102;SDS011;12278;53.058;9.028;2023-05-08T18:30:41;3.03;;;2.78;;
24102;SDS011;12278;53.058;9.028;2023-05-08T18:34:41;3.35;;;3.05;;
24102;SDS011;12278;53.058;9.028;2023-05-08T18:38:42;4.47;;;2.83;;
24102;SDS011;12278;53.058;9.028;2023-05-08T18:42:42;3.00;;;2.80;;
24102;SDS011;12278;53.058;9.028;2023-05-08T18:46:43;3.38;;;3.05;;
24102;SDS011;12278;53.058;9.028;2023-05-08T18:50:44;4.15;;;2.78;;
24102;SDS011;12278;53.058;9.028;2023-05-08T18:54:44;3.28;;;2.95;;
24102;SDS011;12278;53.058;9.028;2023-05-08T18:58:45;5.82;;;2.90;;
24102;SDS011;12278;53.058;9.028;2023-05-08T19:02:45;3.65;;;3.33;;
24102;SDS011;12278;53.058;9.028;2023-05-08T19:06:46;5.38;;;2.97;;
24102;SDS011;12278;53.058;9.028;2023-05-08T19:10:47;3.22;;;2.83;;
24102;SDS011;12278;53.058;9.028;2023-05-08T19:14:47;2.72;;;2.47;;
24102;SDS011;12278;53.058;9.028;2023-05-08T19:18:49;4.35;;;3.05;;
24102;SDS011;12278;53.058;9.028;2023-05-08T19:22:50;4.38;;;3.10;;
24102;SDS011;12278;53.058;9.028;2023-05-08T19:26:50;4.32;;;3.35;;
24102;SDS011;12278;53.058;9.028;2023-05-08T19:30:51;3.30;;;3.00;;
24102;SDS011;12278;53.058;9.028;2023-05-08T19:34:51;4.32;;;3.00;;
24102;SDS011;12278;53.058;9.028;2023-05-08T19:38:54;3.55;;;3.25;;
24102;SDS011;12278;53.058;9.028;2023-05-08T19:42:54;4.20;;;3.22;;
24102;SDS011;12278;53.058;9.028;2023-05-08T19:46:58;4.80;;;3.22;;
24102;SDS011;12278;53.058;9.028;2023-05-08T19:51:05;4.53;;;3.17;;
24102;SDS011;12278;53.058;9.028;2023-05-08T19:55:06;5.32;;;3.03;;
24102;SDS011;12278;53.058;9.028;2023-05-08T19:59:07;3.20;;;2.97;;
24102;SDS011;12278;53.058;9.028;2023-05-08T20:03:08;3.40;;;3.10;;
24102;SDS011;12278;53.058;9.028;2023-05-08T20:07:08;3.92;;;3.50;;
24102;SDS011;12278;53.058;9.028;2023-05-08T20:11:09;6.10;;;3.65;;
24102;SDS011;12278;53.058;9.028;2023-05-08T20:15:24;2.83;;;2.63;;
24102;SDS011;12278;53.058;9.028;2023-05-08T20:19:38;5.00;;;3.30;;
24102;SDS011;12278;53.058;9.028;2023-05-08T20:23:42;5.80;;;3.90;;
24102;SDS011;12278;53.058;9.028;2023-05-08T23:00:08;2.13;;;2.03;;
24102;SDS011;12278;53.058;9.028;2023-05-08T23:04:11;2.15;;;2.05;;
24102;SDS011;12278;53.058;9.028;2023-05-08T23:08:12;4.55;;;2.40;;
24102;SDS011;12278;53.058;9.028;2023-05-08T23:12:12;4.53;;;2.30;;
24102;SDS011;12278;53.058;9.028;2023-05-08T23:16:13;4.07;;;2.25;;
24102;SDS011;12278;53.058;9.028;2023-05-08T23:20:14;3.00;;;2.60;;
24102;SDS011;12278;53.058;9.028;2023-05-08T23:24:18;2.40;;;2.20;;
24102;SDS011;12278;53.058;9.028;2023-05-08T23:28:18;3.15;;;2.42;;
24102;SDS011;12278;53.058;9.028;2023-05-08T23:32:19;4.35;;;2.28;;
24102;SDS011;12278;53.058;9.028;2023-05-08T23:36:19;2.28;;;2.08;;
24102;SDS011;12278;53.058;9.028;2023-05-08T23:40:21;4.32;;;2.25;;
24102;SDS011;12278;53.058;9.028;2023-05-08T23:44:21;2.55;;;2.35;;
24102;SDS011;12278;53.058;9.028;2023-05-08T23:48:22;2.47;;;2.10;;
24102;SDS011;12278;53.058;9.028;2023-05-08T23:52:24;4.95;;;2.45;;
24102;SDS011;12278;53.058;9.028;2023-05-08T23:56:25;3.47;;;2.10;;
